sensor_id;sensor_type;location;lat;lon;timestamp;temperature;humidity
19435;DHT22;9853;50.848;4.108;2023-11-18T00:01:44;6.60;99.90
19435;DHT22;9853;50.848;4.108;2023-11-18T00:03:44;6.60;99.90
19435;DHT22;9853;50.848;4.108;2023-11-18T00:05:45;6.60;99.90
19435;DHT22;9853;50.848;4.108;2023-11-18T00:07:46;6.60;99.90
19435;DHT22;9853;50.848;4.108;2023-11-18T00:09:47;6.50;99.90
19435;DHT22;9853;50.848;4.108;2023-11-18T00:11:48;6.60;99.90
19435;DHT22;9853;50.848;4.108;2023-11-18T00:13:49;6.50;99.90
19435;DHT22;9853;50.848;4.108;2023-11-18T00:15:50;6.50;99.90
19435;DHT22;9853;50.848;4.108;2023-11-18T00:17:51;6.50;99.90
19435;DHT22;9853;50.848;4.108;2023-11-18T00:19:53;6.50;99.90
19435;DHT22;9853;50.848;4.108;2023-11-18T00:21:54;6.50;99.90
19435;DHT22;9853;50.848;4.108;2023-11-18T00:23:54;6.50;99.90
19435;DHT22;9853;50.848;4.108;2023-11-18T00:25:56;6.70;99.90
19435;DHT22;9853;50.848;4.108;2023-11-18T00:27:58;6.70;99.90
19435;DHT22;9853;50.848;4.108;2023-11-18T00:29:58;6.70;99.90
19435;DHT22;9853;50.848;4.108;2023-11-18T00:32:00;6.70;99.90
19435;DHT22;9853;50.848;4.108;2023-11-18T00:34:00;6.70;99.90
19435;DHT22;9853;50.848;4.108;2023-11-18T00:36:01;6.80;99.90
19435;DHT22;9853;50.848;4.108;2023-11-18T00:38:03;6.80;99.90
19435;DHT22;9853;50.848;4.108;2023-11-18T00:40:04;6.80;99.90
19435;DHT22;9853;50.848;4.108;2023-11-18T00:42:05;6.80;99.90
19435;DHT22;9853;50.848;4.108;2023-11-18T00:44:06;6.90;99.90
19435;DHT22;9853;50.848;4.108;2023-11-18T00:46:08;6.80;99.90
19435;DHT22;9853;50.848;4.108;2023-11-18T00:48:09;6.70;99.90
19435;DHT22;9853;50.848;4.108;2023-11-18T00:50:10;6.70;99.90
19435;DHT22;9853;50.848;4.108;2023-11-18T00:52:10;6.70;99.90
19435;DHT22;9853;50.848;4.108;2023-11-18T00:54:12;6.70;99.90
19435;DHT22;9853;50.848;4.108;2023-11-18T00:56:15;6.70;99.90
19435;DHT22;9853;50.848;4.108;2023-11-18T00:58:18;6.80;99.90
19435;DHT22;9853;50.848;4.108;2023-11-18T01:00:19;6.80;99.90
19435;DHT22;9853;50.848;4.108;2023-11-18T01:02:23;6.80;99.90
19435;DHT22;9853;50.848;4.108;2023-11-18T01:04:24;6.80;99.90
19435;DHT22;9853;50.848;4.108;2023-11-18T01:06:26;6.80;99.90
19435;DHT22;9853;50.848;4.108;2023-11-18T01:08:27;6.90;99.90
19435;DHT22;9853;50.848;4.108;2023-11-18T01:10:28;6.90;99.90
19435;DHT22;9853;50.848;4.108;2023-11-18T01:12:30;7.00;99.90
19435;DHT22;9853;50.848;4.108;2023-11-18T01:14:31;7.10;99.90
19435;DHT22;9853;50.848;4.108;2023-11-18T01:16:32;7.00;99.90
19435;DHT22;9853;50.848;4.108;2023-11-18T01:18:34;6.90;99.90
19435;DHT22;9853;50.848;4.108;2023-11-18T01:20:35;6.80;99.90
19435;DHT22;9853;50.848;4.108;2023-11-18T01:22:37;6.70;99.90
19435;DHT22;9853;50.848;4.108;2023-11-18T01:24:38;6.70;99.90
19435;DHT22;9853;50.848;4.108;2023-11-18T01:26:39;6.80;99.90
19435;DHT22;9853;50.848;4.108;2023-11-18T01:28:39;6.80;99.90
19435;DHT22;9853;50.848;4.108;2023-11-18T01:30:43;6.80;99.90
19435;DHT22;9853;50.848;4.108;2023-11-18T01:32:46;6.80;99.90
19435;DHT22;9853;50.848;4.108;2023-11-18T01:34:47;6.80;99.90
19435;DHT22;9853;50.848;4.108;2023-11-18T01:36:51;6.80;99.90
19435;DHT22;9853;50.848;4.108;2023-11-18T01:38:52;6.80;99.90
19435;DHT22;9853;50.848;4.108;2023-11-18T01:40:55;6.80;99.90
19435;DHT22;9853;50.848;4.108;2023-11-18T01:42:57;6.90;99.90
19435;DHT22;9853;50.848;4.108;2023-11-18T01:44:58;6.90;99.90
19435;DHT22;9853;50.848;4.108;2023-11-18T01:47:01;7.00;99.90
19435;DHT22;9853;50.848;4.108;2023-11-18T01:49:03;7.00;99.90
19435;DHT22;9853;50.848;4.108;2023-11-18T01:51:06;7.00;99.90
19435;DHT22;9853;50.848;4.108;2023-11-18T01:53:09;7.00;99.90
19435;DHT22;9853;50.848;4.108;2023-11-18T01:55:12;7.10;99.90
19435;DHT22;9853;50.848;4.108;2023-11-18T01:57:13;7.10;99.90
19435;DHT22;9853;50.848;4.108;2023-11-18T01:59:16;7.10;99.90
19435;DHT22;9853;50.848;4.108;2023-11-18T02:01:20;7.20;99.90
19435;DHT22;9853;50.848;4.108;2023-11-18T02:03:23;7.30;99.90
19435;DHT22;9853;50.848;4.108;2023-11-18T02:05:24;7.30;99.90
19435;DHT22;9853;50.848;4.108;2023-11-18T02:07:24;7.50;99.90
19435;DHT22;9853;50.848;4.108;2023-11-18T02:09:25;7.40;99.90
19435;DHT22;9853;50.848;4.108;2023-11-18T02:11:39;7.40;99.90
19435;DHT22;9853;50.848;4.108;2023-11-18T02:13:45;7.40;99.90
19435;DHT22;9853;50.848;4.108;2023-11-18T02:15:48;7.40;99.90
19435;DHT22;9853;50.848;4.108;2023-11-18T02:17:50;7.60;99.90
19435;DHT22;9853;50.848;4.108;2023-11-18T02:19:53;7.60;99.90
19435;DHT22;9853;50.848;4.108;2023-11-18T02:21:57;7.50;99.90
19435;DHT22;9853;50.848;4.108;2023-11-18T02:23:58;7.50;99.90
19435;DHT22;9853;50.848;4.108;2023-11-18T02:25:59;7.50;99.90
19435;DHT22;9853;50.848;4.108;2023-11-18T02:28:01;7.40;99.90
19435;DHT22;9853;50.848;4.108;2023-11-18T02:30:04;7.40;99.90
19435;DHT22;9853;50.848;4.108;2023-11-18T02:34:39;7.30;99.90
19435;DHT22;9853;50.848;4.108;2023-11-18T02:36:44;7.40;99.90
19435;DHT22;9853;50.848;4.108;2023-11-18T02:38:50;7.40;99.90
19435;DHT22;9853;50.848;4.108;2023-11-18T02:40:52;7.30;99.90
19435;DHT22;9853;50.848;4.108;2023-11-18T02:42:59;7.30;99.90
19435;DHT22;9853;50.848;4.108;2023-11-18T02:45:01;7.40;99.90
19435;DHT22;9853;50.848;4.108;2023-11-18T02:47:03;7.30;99.90
19435;DHT22;9853;50.848;4.108;2023-11-18T02:49:05;7.40;99.90
19435;DHT22;9853;50.848;4.108;2023-11-18T02:51:06;7.50;99.90
19435;DHT22;9853;50.848;4.108;2023-11-18T02:53:10;7.60;99.90
19435;DHT22;9853;50.848;4.108;2023-11-18T02:55:10;7.70;99.90
19435;DHT22;9853;50.848;4.108;2023-11-18T02:57:11;7.80;99.90
19435;DHT22;9853;50.848;4.108;2023-11-18T02:59:15;8.00;99.90
19435;DHT22;9853;50.848;4.108;2023-11-18T03:01:16;7.90;99.90
19435;DHT22;9853;50.848;4.108;2023-11-18T03:03:17;8.00;99.90
19435;DHT22;9853;50.848;4.108;2023-11-18T03:05:18;8.00;99.90
19435;DHT22;9853;50.848;4.108;2023-11-18T03:07:19;7.80;99.90
19435;DHT22;9853;50.848;4.108;2023-11-18T03:09:20;7.80;99.90
19435;DHT22;9853;50.848;4.108;2023-11-18T03:11:21;7.80;99.90
19435;DHT22;9853;50.848;4.108;2023-11-18T03:13:23;7.80;99.90
19435;DHT22;9853;50.848;4.108;2023-11-18T03:15:24;7.90;99.90
19435;DHT22;9853;50.848;4.108;2023-11-18T03:17:26;8.00;99.90
19435;DHT22;9853;50.848;4.108;2023-11-18T03:19:27;8.10;99.90
19435;DHT22;9853;50.848;4.108;2023-11-18T03:21:28;8.20;99.90
19435;DHT22;9853;50.848;4.108;2023-11-18T03:23:29;8.00;99.90
19435;DHT22;9853;50.848;4.108;2023-11-18T03:25:30;7.90;99.90
19435;DHT22;9853;50.848;4.108;2023-11-18T03:27:30;7.80;99.90
19435;DHT22;9853;50.848;4.108;2023-11-18T03:29:31;7.80;99.90
19435;DHT22;9853;50.848;4.108;2023-11-18T03:31:33;7.80;99.90
19435;DHT22;9853;50.848;4.108;2023-11-18T03:33:34;8.00;99.90
19435;DHT22;9853;50.848;4.108;2023-11-18T03:35:34;8.20;99.90
19435;DHT22;9853;50.848;4.108;2023-11-18T03:37:37;8.20;99.90
19435;DHT22;9853;50.848;4.108;2023-11-18T03:39:39;8.30;99.90
19435;DHT22;9853;50.848;4.108;2023-11-18T03:41:41;8.30;99.90
19435;DHT22;9853;50.848;4.108;2023-11-18T03:43:44;8.40;99.90
19435;DHT22;9853;50.848;4.108;2023-11-18T03:45:46;8.40;99.90
19435;DHT22;9853;50.848;4.108;2023-11-18T03:47:46;8.50;99.90
19435;DHT22;9853;50.848;4.108;2023-11-18T03:49:48;8.40;99.90
19435;DHT22;9853;50.848;4.108;2023-11-18T03:51:48;8.40;99.90
19435;DHT22;9853;50.848;4.108;2023-11-18T03:53:49;8.20;99.90
19435;DHT22;9853;50.848;4.108;2023-11-18T03:55:51;8.30;99.90
19435;DHT22;9853;50.848;4.108;2023-11-18T03:57:52;8.40;99.90
19435;DHT22;9853;50.848;4.108;2023-11-18T03:59:53;8.40;99.90
19435;DHT22;9853;50.848;4.108;2023-11-18T04:01:54;8.40;99.90
19435;DHT22;9853;50.848;4.108;2023-11-18T04:03:55;8.50;99.90
19435;DHT22;9853;50.848;4.108;2023-11-18T04:05:56;8.50;99.90
19435;DHT22;9853;50.848;4.108;2023-11-18T04:07:56;8.30;99.90
19435;DHT22;9853;50.848;4.108;2023-11-18T04:09:57;8.50;99.90
19435;DHT22;9853;50.848;4.108;2023-11-18T04:11:58;8.50;99.90
19435;DHT22;9853;50.848;4.108;2023-11-18T04:13:59;8.70;99.90
19435;DHT22;9853;50.848;4.108;2023-11-18T04:15:59;8.90;99.90
19435;DHT22;9853;50.848;4.108;2023-11-18T04:18:01;8.90;99.90
19435;DHT22;9853;50.848;4.108;2023-11-18T04:20:02;9.00;99.90
19435;DHT22;9853;50.848;4.108;2023-11-18T04:22:05;9.00;99.90
19435;DHT22;9853;50.848;4.108;2023-11-18T04:24:06;9.10;99.90
19435;DHT22;9853;50.848;4.108;2023-11-18T04:26:08;8.90;99.90
19435;DHT22;9853;50.848;4.108;2023-11-18T04:28:09;8.80;99.90
19435;DHT22;9853;50.848;4.108;2023-11-18T04:30:10;8.80;99.90
19435;DHT22;9853;50.848;4.108;2023-11-18T04:32:13;8.90;99.90
19435;DHT22;9853;50.848;4.108;2023-11-18T04:34:14;8.80;99.90
19435;DHT22;9853;50.848;4.108;2023-11-18T04:36:15;8.90;99.90
19435;DHT22;9853;50.848;4.108;2023-11-18T04:38:17;8.70;99.90
19435;DHT22;9853;50.848;4.108;2023-11-18T04:40:18;8.60;99.90
19435;DHT22;9853;50.848;4.108;2023-11-18T04:42:19;8.70;99.90
19435;DHT22;9853;50.848;4.108;2023-11-18T04:44:19;8.60;99.90
19435;DHT22;9853;50.848;4.108;2023-11-18T04:46:20;8.60;99.90
19435;DHT22;9853;50.848;4.108;2023-11-18T04:48:22;8.70;99.90
19435;DHT22;9853;50.848;4.108;2023-11-18T04:50:23;9.00;99.90
19435;DHT22;9853;50.848;4.108;2023-11-18T04:52:24;8.90;99.90
19435;DHT22;9853;50.848;4.108;2023-11-18T04:54:25;8.90;99.90
19435;DHT22;9853;50.848;4.108;2023-11-18T04:56:26;8.80;99.90
19435;DHT22;9853;50.848;4.108;2023-11-18T04:58:27;8.80;99.90
19435;DHT22;9853;50.848;4.108;2023-11-18T05:00:28;8.80;99.90
19435;DHT22;9853;50.848;4.108;2023-11-18T05:02:29;8.60;99.90
19435;DHT22;9853;50.848;4.108;2023-11-18T05:04:29;8.40;99.90
19435;DHT22;9853;50.848;4.108;2023-11-18T05:06:30;8.40;99.90
19435;DHT22;9853;50.848;4.108;2023-11-18T05:08:31;8.70;99.90
19435;DHT22;9853;50.848;4.108;2023-11-18T05:10:34;8.90;99.90
19435;DHT22;9853;50.848;4.108;2023-11-18T05:12:36;9.00;99.90
19435;DHT22;9853;50.848;4.108;2023-11-18T05:14:37;8.90;99.90
19435;DHT22;9853;50.848;4.108;2023-11-18T05:16:38;8.80;99.90
19435;DHT22;9853;50.848;4.108;2023-11-18T05:18:39;8.60;99.90
19435;DHT22;9853;50.848;4.108;2023-11-18T05:20:44;8.60;99.90
19435;DHT22;9853;50.848;4.108;2023-11-18T05:22:45;8.70;99.90
19435;DHT22;9853;50.848;4.108;2023-11-18T05:24:46;8.60;99.90
19435;DHT22;9853;50.848;4.108;2023-11-18T05:26:48;8.80;99.90
19435;DHT22;9853;50.848;4.108;2023-11-18T05:28:49;8.90;99.90
19435;DHT22;9853;50.848;4.108;2023-11-18T05:30:51;8.80;99.90
19435;DHT22;9853;50.848;4.108;2023-11-18T05:32:52;8.80;99.90
19435;DHT22;9853;50.848;4.108;2023-11-18T05:34:53;9.10;99.90
19435;DHT22;9853;50.848;4.108;2023-11-18T05:36:55;9.00;99.90
19435;DHT22;9853;50.848;4.108;2023-11-18T05:38:56;8.90;99.90
19435;DHT22;9853;50.848;4.108;2023-11-18T05:40:57;8.90;99.90
19435;DHT22;9853;50.848;4.108;2023-11-18T05:42:58;8.80;99.90
19435;DHT22;9853;50.848;4.108;2023-11-18T05:44:59;8.70;99.90
19435;DHT22;9853;50.848;4.108;2023-11-18T05:47:00;8.80;99.90
19435;DHT22;9853;50.848;4.108;2023-11-18T05:49:03;8.80;99.90
19435;DHT22;9853;50.848;4.108;2023-11-18T05:51:08;8.70;99.90
19435;DHT22;9853;50.848;4.108;2023-11-18T05:53:08;8.60;99.90
19435;DHT22;9853;50.848;4.108;2023-11-18T05:55:09;8.50;99.90
19435;DHT22;9853;50.848;4.108;2023-11-18T05:57:11;8.60;99.90
19435;DHT22;9853;50.848;4.108;2023-11-18T05:59:12;8.60;99.90
19435;DHT22;9853;50.848;4.108;2023-11-18T06:01:15;8.70;99.90
19435;DHT22;9853;50.848;4.108;2023-11-18T06:03:17;8.60;99.90
19435;DHT22;9853;50.848;4.108;2023-11-18T06:05:18;8.60;99.90
19435;DHT22;9853;50.848;4.108;2023-11-18T06:07:19;8.60;99.90
19435;DHT22;9853;50.848;4.108;2023-11-18T06:09:20;8.60;99.90
19435;DHT22;9853;50.848;4.108;2023-11-18T06:11:26;8.60;99.90
19435;DHT22;9853;50.848;4.108;2023-11-18T06:13:28;8.70;99.90
19435;DHT22;9853;50.848;4.108;2023-11-18T06:15:28;8.80;99.90
19435;DHT22;9853;50.848;4.108;2023-11-18T06:17:29;9.00;99.90
19435;DHT22;9853;50.848;4.108;2023-11-18T06:19:30;9.00;99.90
19435;DHT22;9853;50.848;4.108;2023-11-18T06:21:31;9.10;99.90
19435;DHT22;9853;50.848;4.108;2023-11-18T06:23:32;9.20;99.90
19435;DHT22;9853;50.848;4.108;2023-11-18T06:25:33;9.20;99.90
19435;DHT22;9853;50.848;4.108;2023-11-18T06:27:35;9.30;99.90
19435;DHT22;9853;50.848;4.108;2023-11-18T06:29:36;9.20;99.90
19435;DHT22;9853;50.848;4.108;2023-11-18T06:31:37;9.30;99.90
19435;DHT22;9853;50.848;4.108;2023-11-18T06:33:39;9.20;99.90
19435;DHT22;9853;50.848;4.108;2023-11-18T06:35:46;9.10;99.90
19435;DHT22;9853;50.848;4.108;2023-11-18T06:37:46;9.00;99.90
19435;DHT22;9853;50.848;4.108;2023-11-18T06:39:48;9.00;99.90
19435;DHT22;9853;50.848;4.108;2023-11-18T06:41:49;9.00;99.90
19435;DHT22;9853;50.848;4.108;2023-11-18T06:43:51;8.90;99.90
19435;DHT22;9853;50.848;4.108;2023-11-18T06:45:52;8.90;99.90
19435;DHT22;9853;50.848;4.108;2023-11-18T06:47:53;8.90;99.90
19435;DHT22;9853;50.848;4.108;2023-11-18T06:49:54;8.80;99.90
19435;DHT22;9853;50.848;4.108;2023-11-18T06:51:56;8.80;99.90
19435;DHT22;9853;50.848;4.108;2023-11-18T06:53:58;8.90;99.90
19435;DHT22;9853;50.848;4.108;2023-11-18T06:55:58;9.00;99.90
19435;DHT22;9853;50.848;4.108;2023-11-18T06:57:59;9.00;99.90
19435;DHT22;9853;50.848;4.108;2023-11-18T07:00:00;9.10;99.90
19435;DHT22;9853;50.848;4.108;2023-11-18T07:02:01;9.20;99.90
19435;DHT22;9853;50.848;4.108;2023-11-18T07:04:02;9.20;99.90
19435;DHT22;9853;50.848;4.108;2023-11-18T07:06:03;9.30;99.90
19435;DHT22;9853;50.848;4.108;2023-11-18T07:08:06;9.20;99.90
19435;DHT22;9853;50.848;4.108;2023-11-18T07:10:08;9.10;99.90
19435;DHT22;9853;50.848;4.108;2023-11-18T07:12:13;9.20;99.90
19435;DHT22;9853;50.848;4.108;2023-11-18T07:14:14;9.20;99.90
19435;DHT22;9853;50.848;4.108;2023-11-18T07:16:18;9.00;99.90
19435;DHT22;9853;50.848;4.108;2023-11-18T07:18:19;8.90;99.90
19435;DHT22;9853;50.848;4.108;2023-11-18T07:20:22;9.00;99.90
19435;DHT22;9853;50.848;4.108;2023-11-18T07:22:23;8.90;99.90
19435;DHT22;9853;50.848;4.108;2023-11-18T07:24:25;8.90;99.90
19435;DHT22;9853;50.848;4.108;2023-11-18T07:26:26;8.90;99.90
19435;DHT22;9853;50.848;4.108;2023-11-18T07:28:27;8.90;99.90
19435;DHT22;9853;50.848;4.108;2023-11-18T07:30:27;9.10;99.90
19435;DHT22;9853;50.848;4.108;2023-11-18T07:32:28;9.20;99.90
19435;DHT22;9853;50.848;4.108;2023-11-18T07:34:30;9.10;99.90
19435;DHT22;9853;50.848;4.108;2023-11-18T07:36:33;9.10;99.90
19435;DHT22;9853;50.848;4.108;2023-11-18T07:38:34;9.20;99.90
19435;DHT22;9853;50.848;4.108;2023-11-18T07:40:35;9.10;99.90
19435;DHT22;9853;50.848;4.108;2023-11-18T07:42:36;9.10;99.90
19435;DHT22;9853;50.848;4.108;2023-11-18T07:44:37;9.30;99.90
19435;DHT22;9853;50.848;4.108;2023-11-18T07:46:39;9.30;99.90
19435;DHT22;9853;50.848;4.108;2023-11-18T07:48:43;9.40;99.90
19435;DHT22;9853;50.848;4.108;2023-11-18T07:50:44;9.50;99.90
19435;DHT22;9853;50.848;4.108;2023-11-18T07:52:45;9.60;99.90
19435;DHT22;9853;50.848;4.108;2023-11-18T07:54:47;9.60;99.90
19435;DHT22;9853;50.848;4.108;2023-11-18T07:56:49;9.70;99.90
19435;DHT22;9853;50.848;4.108;2023-11-18T07:58:49;9.80;99.90
19435;DHT22;9853;50.848;4.108;2023-11-18T08:00:52;9.60;99.90
19435;DHT22;9853;50.848;4.108;2023-11-18T08:02:53;9.60;99.90
19435;DHT22;9853;50.848;4.108;2023-11-18T08:04:54;9.50;99.90
19435;DHT22;9853;50.848;4.108;2023-11-18T08:06:57;9.60;99.90
19435;DHT22;9853;50.848;4.108;2023-11-18T08:08:57;9.50;99.90
19435;DHT22;9853;50.848;4.108;2023-11-18T08:10:58;9.40;99.90
19435;DHT22;9853;50.848;4.108;2023-11-18T08:13:00;9.30;99.90
19435;DHT22;9853;50.848;4.108;2023-11-18T08:15:02;9.30;99.90
19435;DHT22;9853;50.848;4.108;2023-11-18T08:17:03;9.30;99.90
19435;DHT22;9853;50.848;4.108;2023-11-18T08:19:05;9.20;99.90
19435;DHT22;9853;50.848;4.108;2023-11-18T08:21:09;9.20;99.90
19435;DHT22;9853;50.848;4.108;2023-11-18T08:23:10;9.20;99.90
19435;DHT22;9853;50.848;4.108;2023-11-18T08:25:11;9.20;99.90
19435;DHT22;9853;50.848;4.108;2023-11-18T08:27:13;9.40;99.90
19435;DHT22;9853;50.848;4.108;2023-11-18T08:29:14;9.60;99.90
19435;DHT22;9853;50.848;4.108;2023-11-18T08:31:14;9.40;99.90
19435;DHT22;9853;50.848;4.108;2023-11-18T08:33:19;9.40;99.90
19435;DHT22;9853;50.848;4.108;2023-11-18T08:35:20;9.10;99.90
19435;DHT22;9853;50.848;4.108;2023-11-18T08:37:22;9.20;99.90
19435;DHT22;9853;50.848;4.108;2023-11-18T08:39:22;9.30;99.90
19435;DHT22;9853;50.848;4.108;2023-11-18T08:41:26;9.40;99.90
19435;DHT22;9853;50.848;4.108;2023-11-18T08:43:27;9.60;99.90
19435;DHT22;9853;50.848;4.108;2023-11-18T08:45:30;9.50;99.90
19435;DHT22;9853;50.848;4.108;2023-11-18T08:47:33;9.70;99.90
19435;DHT22;9853;50.848;4.108;2023-11-18T08:49:34;9.40;99.90
19435;DHT22;9853;50.848;4.108;2023-11-18T08:51:35;9.50;99.90
19435;DHT22;9853;50.848;4.108;2023-11-18T08:53:37;9.60;99.90
19435;DHT22;9853;50.848;4.108;2023-11-18T08:55:41;9.60;99.90
19435;DHT22;9853;50.848;4.108;2023-11-18T08:57:51;9.70;99.90
19435;DHT22;9853;50.848;4.108;2023-11-18T09:00:04;9.80;99.90
19435;DHT22;9853;50.848;4.108;2023-11-18T09:02:18;9.80;99.90
19435;DHT22;9853;50.848;4.108;2023-11-18T09:04:23;9.90;99.90
19435;DHT22;9853;50.848;4.108;2023-11-18T09:06:24;9.80;99.90
19435;DHT22;9853;50.848;4.108;2023-11-18T09:08:33;9.80;99.90
19435;DHT22;9853;50.848;4.108;2023-11-18T09:10:38;9.70;99.90
19435;DHT22;9853;50.848;4.108;2023-11-18T09:12:41;9.50;99.90
19435;DHT22;9853;50.848;4.108;2023-11-18T09:14:45;9.60;99.90
19435;DHT22;9853;50.848;4.108;2023-11-18T09:16:48;9.50;99.90
19435;DHT22;9853;50.848;4.108;2023-11-18T09:18:49;9.60;99.90
19435;DHT22;9853;50.848;4.108;2023-11-18T09:20:51;9.70;99.90
19435;DHT22;9853;50.848;4.108;2023-11-18T09:22:54;9.80;99.90
19435;DHT22;9853;50.848;4.108;2023-11-18T09:24:56;9.70;99.90
19435;DHT22;9853;50.848;4.108;2023-11-18T09:26:56;9.60;99.90
19435;DHT22;9853;50.848;4.108;2023-11-18T09:28:57;9.60;99.90
19435;DHT22;9853;50.848;4.108;2023-11-18T09:30:58;9.60;99.90
19435;DHT22;9853;50.848;4.108;2023-11-18T09:33:01;9.50;99.90
19435;DHT22;9853;50.848;4.108;2023-11-18T09:35:03;9.30;99.90
19435;DHT22;9853;50.848;4.108;2023-11-18T09:37:09;9.40;99.90
19435;DHT22;9853;50.848;4.108;2023-11-18T09:39:10;9.40;99.90
19435;DHT22;9853;50.848;4.108;2023-11-18T09:41:29;9.50;99.90
19435;DHT22;9853;50.848;4.108;2023-11-18T09:43:38;9.70;99.90
19435;DHT22;9853;50.848;4.108;2023-11-18T09:45:56;9.80;99.90
19435;DHT22;9853;50.848;4.108;2023-11-18T09:48:04;9.70;99.90
19435;DHT22;9853;50.848;4.108;2023-11-18T09:50:10;9.80;99.90
19435;DHT22;9853;50.848;4.108;2023-11-18T09:52:16;9.80;99.90
19435;DHT22;9853;50.848;4.108;2023-11-18T09:54:30;9.70;99.90
19435;DHT22;9853;50.848;4.108;2023-11-18T10:01:17;9.70;99.90
19435;DHT22;9853;50.848;4.108;2023-11-18T10:03:22;9.80;99.90
19435;DHT22;9853;50.848;4.108;2023-11-18T10:05:23;9.80;99.90
19435;DHT22;9853;50.848;4.108;2023-11-18T10:07:27;9.80;99.90
19435;DHT22;9853;50.848;4.108;2023-11-18T10:09:33;10.00;99.90
19435;DHT22;9853;50.848;4.108;2023-11-18T10:11:41;10.10;99.90
19435;DHT22;9853;50.848;4.108;2023-11-18T10:13:41;9.90;99.90
19435;DHT22;9853;50.848;4.108;2023-11-18T10:15:44;9.70;99.90
19435;DHT22;9853;50.848;4.108;2023-11-18T10:17:48;9.50;99.90
19435;DHT22;9853;50.848;4.108;2023-11-18T10:20:07;9.60;99.90
19435;DHT22;9853;50.848;4.108;2023-11-18T10:22:23;9.60;99.90
19435;DHT22;9853;50.848;4.108;2023-11-18T10:24:24;9.80;99.90
19435;DHT22;9853;50.848;4.108;2023-11-18T10:26:25;9.80;99.90
19435;DHT22;9853;50.848;4.108;2023-11-18T10:28:34;9.80;99.90
19435;DHT22;9853;50.848;4.108;2023-11-18T10:30:43;9.80;99.90
19435;DHT22;9853;50.848;4.108;2023-11-18T10:32:59;9.80;99.90
19435;DHT22;9853;50.848;4.108;2023-11-18T10:35:08;9.90;99.90
19435;DHT22;9853;50.848;4.108;2023-11-18T10:37:11;9.90;99.90
19435;DHT22;9853;50.848;4.108;2023-11-18T10:39:13;9.80;99.90
19435;DHT22;9853;50.848;4.108;2023-11-18T10:41:18;9.70;99.90
19435;DHT22;9853;50.848;4.108;2023-11-18T10:43:19;9.70;99.90
19435;DHT22;9853;50.848;4.108;2023-11-18T10:45:23;9.70;99.90
19435;DHT22;9853;50.848;4.108;2023-11-18T10:47:25;9.40;99.90
19435;DHT22;9853;50.848;4.108;2023-11-18T10:49:29;9.40;99.90
19435;DHT22;9853;50.848;4.108;2023-11-18T10:51:37;9.50;99.90
19435;DHT22;9853;50.848;4.108;2023-11-18T10:53:43;9.50;99.90
19435;DHT22;9853;50.848;4.108;2023-11-18T10:55:53;9.50;99.90
19435;DHT22;9853;50.848;4.108;2023-11-18T10:57:54;9.40;99.90
19435;DHT22;9853;50.848;4.108;2023-11-18T11:00:01;9.40;99.90
19435;DHT22;9853;50.848;4.108;2023-11-18T11:02:18;9.40;99.90
19435;DHT22;9853;50.848;4.108;2023-11-18T11:04:20;9.40;99.90
19435;DHT22;9853;50.848;4.108;2023-11-18T11:06:25;9.40;99.90
19435;DHT22;9853;50.848;4.108;2023-11-18T11:08:26;9.60;99.90
19435;DHT22;9853;50.848;4.108;2023-11-18T11:10:28;9.60;99.90
19435;DHT22;9853;50.848;4.108;2023-11-18T11:12:33;9.70;99.90
19435;DHT22;9853;50.848;4.108;2023-11-18T11:14:37;9.70;99.90
19435;DHT22;9853;50.848;4.108;2023-11-18T11:16:42;9.80;99.90
19435;DHT22;9853;50.848;4.108;2023-11-18T11:18:53;9.90;99.90
19435;DHT22;9853;50.848;4.108;2023-11-18T11:21:14;9.70;99.90
19435;DHT22;9853;50.848;4.108;2023-11-18T11:26:09;9.60;99.90
19435;DHT22;9853;50.848;4.108;2023-11-18T11:28:21;9.60;99.90
19435;DHT22;9853;50.848;4.108;2023-11-18T11:30:23;9.60;99.90
19435;DHT22;9853;50.848;4.108;2023-11-18T11:32:38;9.60;99.90
19435;DHT22;9853;50.848;4.108;2023-11-18T11:35:01;9.70;99.90
19435;DHT22;9853;50.848;4.108;2023-11-18T11:37:09;9.70;99.90
19435;DHT22;9853;50.848;4.108;2023-11-18T11:39:11;9.70;99.90
19435;DHT22;9853;50.848;4.108;2023-11-18T11:41:16;9.70;99.90
19435;DHT22;9853;50.848;4.108;2023-11-18T11:43:20;9.60;99.90
19435;DHT22;9853;50.848;4.108;2023-11-18T11:45:25;9.60;99.90
19435;DHT22;9853;50.848;4.108;2023-11-18T11:47:30;9.50;99.90
19435;DHT22;9853;50.848;4.108;2023-11-18T11:49:47;9.60;99.90
19435;DHT22;9853;50.848;4.108;2023-11-18T11:54:24;9.50;99.90
19435;DHT22;9853;50.848;4.108;2023-11-18T11:56:41;9.50;99.90
19435;DHT22;9853;50.848;4.108;2023-11-18T11:58:42;9.60;99.90
19435;DHT22;9853;50.848;4.108;2023-11-18T12:00:44;9.50;99.90
19435;DHT22;9853;50.848;4.108;2023-11-18T12:02:49;9.50;99.90
19435;DHT22;9853;50.848;4.108;2023-11-18T12:04:51;9.50;99.90
19435;DHT22;9853;50.848;4.108;2023-11-18T12:06:54;9.50;99.90
19435;DHT22;9853;50.848;4.108;2023-11-18T12:08:57;9.50;99.90
19435;DHT22;9853;50.848;4.108;2023-11-18T12:10:59;9.50;99.90
19435;DHT22;9853;50.848;4.108;2023-11-18T12:13:11;9.60;99.90
19435;DHT22;9853;50.848;4.108;2023-11-18T12:15:49;9.60;99.90
19435;DHT22;9853;50.848;4.108;2023-11-18T12:19:59;9.60;99.90
19435;DHT22;9853;50.848;4.108;2023-11-18T12:22:00;9.60;99.90
19435;DHT22;9853;50.848;4.108;2023-11-18T12:24:16;9.60;99.90
19435;DHT22;9853;50.848;4.108;2023-11-18T12:26:38;9.60;99.90
19435;DHT22;9853;50.848;4.108;2023-11-18T12:28:40;9.60;99.90
19435;DHT22;9853;50.848;4.108;2023-11-18T12:30:46;9.60;99.90
19435;DHT22;9853;50.848;4.108;2023-11-18T12:34:57;9.60;99.90
19435;DHT22;9853;50.848;4.108;2023-11-18T12:42:05;9.50;99.90
19435;DHT22;9853;50.848;4.108;2023-11-18T12:44:30;9.50;99.90
19435;DHT22;9853;50.848;4.108;2023-11-18T12:48:51;9.50;99.90
19435;DHT22;9853;50.848;4.108;2023-11-18T12:50:55;9.60;99.90
19435;DHT22;9853;50.848;4.108;2023-11-18T12:52:56;9.50;99.90
19435;DHT22;9853;50.848;4.108;2023-11-18T12:54:58;9.50;99.90
19435;DHT22;9853;50.848;4.108;2023-11-18T12:57:01;9.50;99.90
19435;DHT22;9853;50.848;4.108;2023-11-18T12:59:02;9.40;99.90
19435;DHT22;9853;50.848;4.108;2023-11-18T13:01:06;9.40;99.90
19435;DHT22;9853;50.848;4.108;2023-11-18T13:03:07;9.50;99.90
19435;DHT22;9853;50.848;4.108;2023-11-18T13:05:11;9.60;99.90
19435;DHT22;9853;50.848;4.108;2023-11-18T13:07:17;9.60;99.90
19435;DHT22;9853;50.848;4.108;2023-11-18T13:09:19;9.60;99.90
19435;DHT22;9853;50.848;4.108;2023-11-18T13:11:26;9.60;99.90
19435;DHT22;9853;50.848;4.108;2023-11-18T13:13:27;9.70;99.90
19435;DHT22;9853;50.848;4.108;2023-11-18T13:15:30;9.60;99.90
19435;DHT22;9853;50.848;4.108;2023-11-18T13:17:31;9.60;99.90
19435;DHT22;9853;50.848;4.108;2023-11-18T13:19:32;9.60;99.90
19435;DHT22;9853;50.848;4.108;2023-11-18T13:21:34;9.60;99.90
19435;DHT22;9853;50.848;4.108;2023-11-18T13:23:37;9.70;99.90
19435;DHT22;9853;50.848;4.108;2023-11-18T13:25:38;9.60;99.90
19435;DHT22;9853;50.848;4.108;2023-11-18T13:27:39;9.70;99.90
19435;DHT22;9853;50.848;4.108;2023-11-18T13:29:44;9.70;99.90
19435;DHT22;9853;50.848;4.108;2023-11-18T13:31:46;9.70;99.90
19435;DHT22;9853;50.848;4.108;2023-11-18T13:33:48;9.90;99.90
19435;DHT22;9853;50.848;4.108;2023-11-18T13:35:52;9.90;99.90
19435;DHT22;9853;50.848;4.108;2023-11-18T13:37:54;9.90;99.90
19435;DHT22;9853;50.848;4.108;2023-11-18T13:39:56;9.80;99.90
19435;DHT22;9853;50.848;4.108;2023-11-18T13:41:57;9.80;99.90
19435;DHT22;9853;50.848;4.108;2023-11-18T13:43:58;9.70;99.90
19435;DHT22;9853;50.848;4.108;2023-11-18T13:45:59;9.70;99.90
19435;DHT22;9853;50.848;4.108;2023-11-18T13:48:01;9.70;99.90